Time;durP1;ratioP1;P1;durP2;ratioP2;P2;SDS_P1;SDS_P2;PMS_P1;PMS_P2;Temp;Humidity;BMP_temperature;BMP_pressure;BME280_temperature;BME280_humidity;BME280_pressure;Samples;Min_cycle;Max_cycle;Signal;HPM_P1;HPM_P2
2022/12/06 00:01:45;;;;;;;32.27;19.70;;;3.50;1.00;;;;;;5113303;28;20183;-87
2022/12/06 00:04:14;;;;;;;28.50;18.52;;;3.50;1.00;;;;;;5113780;28;20201;-87
2022/12/06 00:06:42;;;;;;;35.35;19.20;;;3.50;1.00;;;;;;5095148;28;20771;-87
2022/12/06 00:09:14;;;;;;;33.92;18.85;;;3.50;1.00;;;;;;5102106;28;20251;-87
2022/12/06 00:11:40;;;;;;;36.28;19.60;;;3.50;1.00;;;;;;5115334;28;20199;-87
2022/12/06 00:14:06;;;;;;;34.20;20.40;;;3.50;1.00;;;;;;5115059;28;20183;-87
2022/12/06 00:16:33;;;;;;;32.47;19.92;;;3.60;1.00;;;;;;5113098;28;20180;-87
2022/12/06 00:19:00;;;;;;;36.15;19.48;;;3.60;1.00;;;;;;5112521;28;20279;-87
2022/12/06 00:21:29;;;;;;;32.47;19.80;;;3.60;1.00;;;;;;5113395;28;20544;-88
2022/12/06 00:23:57;;;;;;;29.88;18.95;;;3.60;1.00;;;;;;5104706;28;20184;-87
2022/12/06 00:26:23;;;;;;;33.03;20.00;;;3.60;1.00;;;;;;5110728;28;20302;-88
2022/12/06 00:28:52;;;;;;;47.45;19.63;;;3.60;1.00;;;;;;5106475;28;20549;-87
2022/12/06 00:31:20;;;;;;;45.47;20.65;;;3.60;1.00;;;;;;5109361;28;20209;-87
2022/12/06 00:33:46;;;;;;;45.38;20.98;;;3.70;1.00;;;;;;5094622;28;20172;-87
2022/12/06 00:36:23;;;;;;;37.22;20.88;;;3.70;1.00;;;;;;5110745;28;20207;-88
2022/12/06 00:38:50;;;;;;;45.15;21.45;;;3.70;1.00;;;;;;5113107;28;20220;-88
2022/12/06 00:41:17;;;;;;;35.67;19.98;;;3.70;1.00;;;;;;5113120;28;20191;-86
2022/12/06 00:43:44;;;;;;;38.17;21.23;;;3.70;1.00;;;;;;5101306;28;20202;-86
2022/12/06 00:46:14;;;;;;;45.88;20.85;;;3.70;1.00;;;;;;5105819;28;20196;-87
2022/12/06 00:48:39;;;;;;;34.05;19.70;;;3.60;1.00;;;;;;5106187;28;20567;-88
2022/12/06 00:51:05;;;;;;;43.73;19.73;;;3.70;1.00;;;;;;5100625;28;20184;-88
2022/12/06 00:53:31;;;;;;;37.85;20.48;;;3.70;1.00;;;;;;5108350;28;20270;-87
2022/12/06 00:55:57;;;;;;;42.73;21.20;;;3.70;1.00;;;;;;5113427;28;20254;-86
2022/12/06 00:58:23;;;;;;;40.43;22.03;;;3.70;1.00;;;;;;5107638;28;20207;-87
2022/12/06 01:00:48;;;;;;;42.13;21.00;;;3.70;1.00;;;;;;5109773;28;20555;-87
2022/12/06 01:03:14;;;;;;;40.30;21.60;;;3.70;1.00;;;;;;5111735;28;20187;-87
2022/12/06 01:05:44;;;;;;;42.47;21.02;;;3.70;1.00;;;;;;5113524;28;20278;-87
2022/12/06 01:08:10;;;;;;;51.22;23.00;;;3.70;1.00;;;;;;5103477;28;20576;-87
2022/12/06 01:10:39;;;;;;;36.97;20.40;;;3.70;1.00;;;;;;5093138;28;20911;-86
2022/12/06 01:13:06;;;;;;;40.88;23.52;;;3.70;1.00;;;;;;5106458;28;20553;-87
2022/12/06 01:15:35;;;;;;;37.25;20.25;;;3.70;1.00;;;;;;5111463;28;20279;-86
2022/12/06 01:18:01;;;;;;;41.17;21.38;;;3.70;1.00;;;;;;5099451;28;20215;-87
2022/12/06 01:20:27;;;;;;;43.63;21.58;;;3.70;1.00;;;;;;5111232;28;20179;-87
2022/12/06 01:22:53;;;;;;;32.57;19.97;;;3.70;1.00;;;;;;5107825;28;20238;-88
2022/12/06 01:25:18;;;;;;;34.10;19.53;;;3.70;1.00;;;;;;5104854;28;20682;-87
2022/12/06 01:27:47;;;;;;;38.10;21.23;;;3.80;1.00;;;;;;5108409;28;20191;-86
2022/12/06 01:30:13;;;;;;;36.20;20.88;;;3.80;1.00;;;;;;5101722;28;20187;-87
2022/12/06 01:32:39;;;;;;;43.50;20.05;;;3.80;1.00;;;;;;5095615;28;20188;-86
2022/12/06 01:35:05;;;;;;;33.60;21.17;;;3.80;1.00;;;;;;5093330;28;20695;-87
2022/12/06 01:37:33;;;;;;;42.00;20.40;;;3.80;1.00;;;;;;5106223;28;20208;-86
2022/12/06 01:39:59;;;;;;;40.30;20.60;;;3.90;1.00;;;;;;5104518;28;20188;-87
2022/12/06 01:42:25;;;;;;;36.50;19.67;;;3.90;1.00;;;;;;5109870;28;20176;-87
2022/12/06 01:44:52;;;;;;;40.57;20.60;;;3.90;1.00;;;;;;5102754;28;20196;-87
2022/12/06 01:47:25;;;;;;;54.92;22.90;;;3.90;1.00;;;;;;5109402;28;20190;-86
2022/12/06 01:50:00;;;;;;;42.33;21.55;;;3.90;1.00;;;;;;5110301;28;20187;-87
2022/12/06 01:52:33;;;;;;;45.95;21.27;;;3.90;1.00;;;;;;5101327;28;20203;-87
2022/12/06 01:55:00;;;;;;;45.65;21.50;;;3.90;1.00;;;;;;5100641;28;20204;-87
2022/12/06 01:57:27;;;;;;;53.47;24.23;;;3.90;1.00;;;;;;5113411;28;20219;-87
2022/12/06 01:59:52;;;;;;;41.15;22.20;;;3.90;1.00;;;;;;5109785;28;20183;-87
2022/12/06 02:02:18;;;;;;;47.43;21.93;;;3.90;1.00;;;;;;5101779;28;20546;-86
2022/12/06 02:04:44;;;;;;;59.10;22.27;;;4.00;1.00;;;;;;5109574;28;20199;-86
2022/12/06 02:07:11;;;;;;;52.67;21.55;;;4.00;1.00;;;;;;5105955;28;20182;-87
2022/12/06 02:09:40;;;;;;;53.35;22.45;;;4.00;1.00;;;;;;5111038;28;20232;-87
2022/12/06 02:12:12;;;;;;;51.60;22.45;;;4.00;1.00;;;;;;5109628;28;20188;-87
2022/12/06 02:14:38;;;;;;;45.58;21.73;;;4.00;1.00;;;;;;5111853;28;20219;-87
2022/12/06 02:17:46;;;;;;;49.65;22.58;;;4.00;1.00;;;;;;5115636;28;20179;-87
2022/12/06 02:20:35;;;;;;;72.03;25.25;;;4.10;1.00;;;;;;5111514;28;20172;-87
2022/12/06 02:23:33;;;;;;;70.25;26.60;;;4.10;1.00;;;;;;5111270;28;20187;-85
2022/12/06 02:25:58;;;;;;;54.28;25.92;;;4.10;1.00;;;;;;5108638;28;20219;-87
2022/12/06 02:29:06;;;;;;;57.53;24.90;;;4.10;1.00;;;;;;5108810;28;20215;-86
2022/12/06 02:32:07;;;;;;;61.72;26.52;;;4.10;1.00;;;;;;5097228;28;20182;-86
2022/12/06 02:35:02;;;;;;;54.97;25.02;;;4.10;1.00;;;;;;5114822;28;20739;-87
2022/12/06 02:37:46;;;;;;;55.72;25.60;;;4.10;1.00;;;;;;5110039;28;20222;-87
2022/12/06 02:40:18;;;;;;;54.65;25.50;;;4.10;1.00;;;;;;5101283;28;20225;-87
2022/12/06 02:42:53;;;;;;;46.60;25.80;;;4.20;1.00;;;;;;5114018;28;20180;-87
2022/12/06 02:45:23;;;;;;;54.95;25.52;;;4.20;1.00;;;;;;5109740;28;20327;-87
2022/12/06 02:47:51;;;;;;;55.03;26.90;;;4.20;1.00;;;;;;5106856;28;20187;-86
2022/12/06 02:50:21;;;;;;;67.18;25.48;;;4.20;1.00;;;;;;5114719;28;20266;-86
2022/12/06 02:52:49;;;;;;;49.58;25.40;;;4.20;1.00;;;;;;5101299;28;20237;-86
2022/12/06 02:55:17;;;;;;;65.93;28.60;;;4.20;1.00;;;;;;5113150;28;20206;-87
2022/12/06 02:57:46;;;;;;;57.40;27.42;;;4.20;1.00;;;;;;5106968;28;20687;-86
2022/12/06 03:00:33;;;;;;;54.45;26.63;;;4.20;1.00;;;;;;5114268;28;20187;-86
2022/12/06 03:03:20;;;;;;;58.40;29.20;;;4.20;1.00;;;;;;5110896;28;20178;-86
2022/12/06 03:06:01;;;;;;;63.70;28.35;;;4.20;1.00;;;;;;5100048;28;20200;-86
2022/12/06 03:08:41;;;;;;;55.92;27.75;;;4.20;1.00;;;;;;5102529;28;20187;-87
2022/12/06 03:11:07;;;;;;;57.15;27.08;;;4.30;1.00;;;;;;5126903;28;20167;-86
2022/12/06 03:13:39;;;;;;;53.67;25.70;;;4.30;1.00;;;;;;5132957;28;20270;-86
2022/12/06 03:16:26;;;;;;;54.90;25.13;;;4.30;1.00;;;;;;5128589;28;20451;-87
2022/12/06 03:19:11;;;;;;;42.80;23.55;;;4.30;1.00;;;;;;5128853;28;20204;-85
2022/12/06 03:21:45;;;;;;;47.70;24.08;;;4.30;1.00;;;;;;5112088;28;20187;-87
2022/12/06 03:24:16;;;;;;;56.83;24.20;;;4.30;1.00;;;;;;5106457;28;20177;-86
2022/12/06 03:26:45;;;;;;;54.03;25.20;;;4.30;1.00;;;;;;5104186;28;20640;-86
2022/12/06 03:29:15;;;;;;;50.65;22.73;;;4.40;1.00;;;;;;5102558;28;20190;-86
2022/12/06 03:31:41;;;;;;;60.45;25.23;;;4.40;1.00;;;;;;5104901;28;20178;-86
2022/12/06 03:34:39;;;;;;;52.83;23.52;;;4.40;1.00;;;;;;5107305;28;20187;-85
2022/12/06 03:37:08;;;;;;;44.38;24.13;;;4.40;1.00;;;;;;5099690;28;20563;-86
2022/12/06 03:39:39;;;;;;;51.45;23.73;;;4.40;1.00;;;;;;5105108;28;20207;-87
2022/12/06 03:42:05;;;;;;;57.10;24.23;;;4.50;1.00;;;;;;5109400;28;20644;-87
2022/12/06 03:44:33;;;;;;;73.63;25.70;;;4.50;1.00;;;;;;5099615;28;20225;-87
2022/12/06 03:47:06;;;;;;;59.03;24.58;;;4.40;1.00;;;;;;5111371;28;20180;-87
2022/12/06 03:49:44;;;;;;;73.90;24.48;;;4.40;1.00;;;;;;5109301;28;20172;-87
2022/12/06 03:52:12;;;;;;;67.07;24.65;;;4.40;1.00;;;;;;5113518;27;20722;-87
2022/12/06 03:54:39;;;;;;;45.58;23.17;;;4.40;1.00;;;;;;5103939;28;20207;-87
2022/12/06 03:57:05;;;;;;;50.85;24.55;;;4.40;1.00;;;;;;5104148;28;20175;-87
2022/12/06 03:59:30;;;;;;;49.70;24.30;;;4.50;1.00;;;;;;5114151;28;20548;-86
2022/12/06 04:01:56;;;;;;;69.90;24.37;;;4.50;1.00;;;;;;5109194;28;20426;-87
2022/12/06 04:04:23;;;;;;;42.80;23.73;;;4.50;1.00;;;;;;5102225;28;20678;-87
2022/12/06 04:06:49;;;;;;;50.60;24.30;;;4.50;1.00;;;;;;5108485;28;20184;-87
2022/12/06 04:11:58;;;;;;;53.60;23.52;;;4.50;1.00;;;;;;5101071;28;20564;-87
2022/12/06 04:14:37;;;;;;;53.73;23.57;;;4.60;1.00;;;;;;5112264;28;20274;-87
2022/12/06 04:19:47;;;;;;;57.10;24.48;;;4.60;1.00;;;;;;5110072;28;20194;-87
2022/12/06 04:25:03;;;;;;;42.47;21.23;;;4.70;1.00;;;;;;5107260;28;20755;-87
2022/12/06 04:38:41;;;;;;;37.85;19.88;;;4.80;1.00;;;;;;5114233;28;20252;-87
2022/12/06 04:41:10;;;;;;;43.13;21.77;;;4.80;1.00;;;;;;5107201;28;20262;-88
2022/12/06 04:43:42;;;;;;;42.67;21.83;;;4.80;1.00;;;;;;5104610;28;20183;-87
2022/12/06 04:46:13;;;;;;;49.70;21.25;;;4.80;1.00;;;;;;5104714;28;20234;-87
2022/12/06 04:48:39;;;;;;;46.03;22.33;;;4.80;1.00;;;;;;5113425;28;20322;-87
2022/12/06 04:51:05;;;;;;;50.63;22.27;;;4.80;1.00;;;;;;5113718;27;20180;-87
2022/12/06 04:53:31;;;;;;;58.80;25.40;;;4.80;1.00;;;;;;5093679;28;20723;-86
2022/12/06 04:55:56;;;;;;;55.93;21.47;;;4.80;1.00;;;;;;5109169;27;20239;-87
2022/12/06 04:58:22;;;;;;;55.73;21.90;;;4.80;1.00;;;;;;5112757;28;20207;-87
2022/12/06 05:00:53;;;;;;;52.83;20.57;;;4.80;1.00;;;;;;5102558;28;20549;-87
2022/12/06 05:03:19;;;;;;;47.35;22.58;;;4.80;1.00;;;;;;5102231;28;20176;-87
2022/12/06 05:05:45;;;;;;;58.67;21.30;;;4.90;1.00;;;;;;5113295;28;20583;-87
2022/12/06 05:08:10;;;;;;;43.50;20.50;;;4.90;1.00;;;;;;5122440;27;20552;-87
2022/12/06 05:10:36;;;;;;;51.60;21.63;;;4.90;1.00;;;;;;5097987;28;20661;-87
2022/12/06 05:13:02;;;;;;;58.20;20.00;;;4.90;1.00;;;;;;5093923;28;20254;-86
2022/12/06 05:15:28;;;;;;;54.37;21.53;;;4.90;1.00;;;;;;5106783;28;20461;-87
2022/12/06 05:17:53;;;;;;;56.78;19.55;;;4.90;1.00;;;;;;5108567;28;20291;-86
2022/12/06 05:20:19;;;;;;;73.13;23.63;;;4.90;1.00;;;;;;5104272;28;20213;-87
2022/12/06 05:22:45;;;;;;;63.20;22.10;;;4.90;1.00;;;;;;5104296;28;20172;-87
2022/12/06 05:25:11;;;;;;;65.17;22.97;;;4.90;1.00;;;;;;5105911;28;20251;-87
2022/12/06 05:27:37;;;;;;;51.47;20.85;;;5.00;1.00;;;;;;5102866;28;20438;-87
2022/12/06 05:30:04;;;;;;;58.93;22.30;;;5.00;1.00;;;;;;5108384;28;20537;-88
2022/12/06 05:32:29;;;;;;;60.70;20.88;;;5.00;1.00;;;;;;5105463;28;20202;-87
2022/12/06 05:34:55;;;;;;;54.67;19.60;;;5.00;1.00;;;;;;5109055;28;20199;-87
2022/12/06 05:37:20;;;;;;;53.47;21.10;;;5.00;1.00;;;;;;5104897;28;20196;-87
2022/12/06 05:39:46;;;;;;;41.77;19.70;;;5.00;1.00;;;;;;5110368;28;20232;-87
2022/12/06 05:42:11;;;;;;;50.67;19.90;;;5.00;1.00;;;;;;5105416;28;20219;-87
2022/12/06 05:44:37;;;;;;;43.87;19.67;;;5.10;1.00;;;;;;5109210;28;20199;-87
2022/12/06 05:47:02;;;;;;;39.97;19.87;;;5.10;1.00;;;;;;5102185;28;20203;-87
2022/12/06 05:49:28;;;;;;;51.70;19.43;;;5.10;1.00;;;;;;5093057;28;20199;-86
2022/12/06 05:51:53;;;;;;;39.20;20.17;;;5.10;1.00;;;;;;5097697;28;20184;-88
2022/12/06 05:54:19;;;;;;;39.83;18.80;;;5.10;1.00;;;;;;5098201;28;20570;-87
2022/12/06 05:56:45;;;;;;;37.10;17.67;;;5.20;1.00;;;;;;5113550;28;20631;-87
2022/12/06 05:59:10;;;;;;;34.07;18.60;;;5.20;1.00;;;;;;5111961;28;20203;-87
2022/12/06 06:01:36;;;;;;;42.77;19.30;;;5.20;1.00;;;;;;5113150;28;20246;-87
2022/12/06 06:04:02;;;;;;;35.33;18.97;;;5.20;1.00;;;;;;5111968;28;20179;-87
2022/12/06 06:06:27;;;;;;;36.87;18.27;;;5.30;1.00;;;;;;5113814;28;20211;-87
2022/12/06 06:08:53;;;;;;;39.37;19.20;;;5.30;1.00;;;;;;5112399;28;20218;-86
2022/12/06 06:11:19;;;;;;;42.20;21.37;;;5.30;1.00;;;;;;5105744;28;20207;-86
2022/12/06 06:13:45;;;;;;;34.90;20.63;;;5.40;1.00;;;;;;5092921;28;20443;-87
2022/12/06 06:16:10;;;;;;;42.80;21.00;;;5.40;1.00;;;;;;5097863;28;20216;-87
2022/12/06 06:18:36;;;;;;;46.43;22.37;;;5.40;1.00;;;;;;5092729;28;20204;-87
2022/12/06 06:21:02;;;;;;;41.10;22.47;;;5.40;1.00;;;;;;5107077;28;20294;-87
2022/12/06 06:23:29;;;;;;;47.28;23.38;;;5.40;1.00;;;;;;5093570;28;20738;-87
2022/12/06 06:25:54;;;;;;;51.22;25.08;;;5.40;1.00;;;;;;5104982;28;20199;-86
2022/12/06 06:28:21;;;;;;;44.23;23.03;;;5.50;1.00;;;;;;5096111;28;20176;-87
2022/12/06 06:30:46;;;;;;;38.30;21.25;;;5.50;1.00;;;;;;5092739;28;20184;-88
2022/12/06 06:33:13;;;;;;;45.87;21.30;;;5.50;1.00;;;;;;5093098;28;20519;-87
2022/12/06 06:35:39;;;;;;;43.75;21.90;;;5.50;1.00;;;;;;5095098;28;20281;-87
2022/12/06 06:38:05;;;;;;;43.00;21.40;;;5.50;1.00;;;;;;5111677;28;20195;-87
2022/12/06 06:40:31;;;;;;;42.90;20.15;;;5.50;1.00;;;;;;5112317;28;20787;-87
2022/12/06 06:42:56;;;;;;;39.63;20.97;;;5.50;1.00;;;;;;5098646;28;20255;-87
2022/12/06 06:45:23;;;;;;;41.57;22.53;;;5.50;1.00;;;;;;5106211;28;20290;-87
2022/12/06 06:47:49;;;;;;;41.90;21.85;;;5.50;1.00;;;;;;5113971;28;20636;-86
2022/12/06 06:50:14;;;;;;;42.23;22.80;;;5.50;1.00;;;;;;5107240;28;20203;-87
2022/12/06 06:52:40;;;;;;;40.90;22.80;;;5.50;1.00;;;;;;5099206;28;20215;-87
2022/12/06 06:55:06;;;;;;;44.60;22.53;;;5.50;1.00;;;;;;5114582;28;20195;-87
2022/12/06 06:57:32;;;;;;;44.20;21.10;;;5.60;1.00;;;;;;5108724;28;20252;-87
2022/12/06 06:59:57;;;;;;;40.20;22.13;;;5.60;1.00;;;;;;5135693;28;20429;-86
2022/12/06 07:02:23;;;;;;;38.63;19.60;;;5.60;1.00;;;;;;5138813;28;20199;-87
2022/12/06 07:04:49;;;;;;;51.27;22.30;;;5.60;1.00;;;;;;5124696;28;20205;-88
2022/12/06 07:07:15;;;;;;;44.33;21.70;;;5.60;1.00;;;;;;5105392;28;20207;-86
2022/12/06 07:09:40;;;;;;;38.47;19.80;;;5.60;1.00;;;;;;5102001;28;20176;-87
2022/12/06 07:12:06;;;;;;;35.40;17.63;;;5.70;1.00;;;;;;5106275;28;20491;-87
2022/12/06 07:14:32;;;;;;;40.67;18.57;;;5.60;1.00;;;;;;5098201;28;20200;-86
2022/12/06 07:16:59;;;;;;;33.80;17.50;;;5.70;1.00;;;;;;5109949;28;20195;-87
2022/12/06 07:19:24;;;;;;;26.42;16.20;;;5.80;1.00;;;;;;5109267;28;20204;-88
2022/12/06 07:21:50;;;;;;;27.33;16.27;;;5.90;1.00;;;;;;5101794;28;20212;-87
2022/12/06 07:24:16;;;;;;;26.00;16.03;;;5.90;1.00;;;;;;5099438;28;20195;-87
2022/12/06 07:26:41;;;;;;;24.37;15.07;;;6.00;1.00;;;;;;5108921;28;20183;-86
2022/12/06 07:29:07;;;;;;;25.03;14.50;;;6.10;1.00;;;;;;5107067;28;20448;-86
2022/12/06 07:31:33;;;;;;;22.23;14.20;;;6.10;1.00;;;;;;5108516;28;20710;-87
2022/12/06 07:34:01;;;;;;;21.63;12.73;;;6.10;1.00;;;;;;5103856;28;20215;-86
2022/12/06 07:36:30;;;;;;;20.63;13.85;;;6.20;1.00;;;;;;5100556;28;20450;-85
2022/12/06 07:38:57;;;;;;;21.48;13.02;;;6.20;1.00;;;;;;5102083;28;20709;-88
2022/12/06 07:46:56;;;;;;;21.63;13.70;;;6.20;1.00;;;;;;5099666;28;20262;-87
2022/12/06 07:49:22;;;;;;;21.25;13.45;;;6.20;1.00;;;;;;5101566;28;20706;-88
2022/12/06 07:51:47;;;;;;;19.63;12.77;;;6.30;1.00;;;;;;5106072;28;20215;-87
2022/12/06 07:54:14;;;;;;;21.23;12.43;;;6.30;1.00;;;;;;5110885;28;20206;-88
2022/12/06 07:56:40;;;;;;;22.73;14.32;;;6.30;1.00;;;;;;5104762;28;21415;-88
2022/12/06 07:59:06;;;;;;;20.95;12.70;;;6.30;1.00;;;;;;5104299;28;20670;-87
2022/12/06 08:01:32;;;;;;;20.60;12.37;;;6.30;1.00;;;;;;5104777;28;20195;-88
2022/12/06 08:03:59;;;;;;;20.50;12.03;;;6.40;1.00;;;;;;5104995;28;20203;-87
2022/12/06 08:06:25;;;;;;;23.80;12.00;;;6.40;1.00;;;;;;5098771;28;20457;-88
2022/12/06 08:08:51;;;;;;;20.70;12.33;;;6.40;1.00;;;;;;5098206;28;20180;-88
2022/12/06 08:11:16;;;;;;;18.43;12.23;;;6.40;1.00;;;;;;5097925;28;20195;-88
2022/12/06 08:13:42;;;;;;;17.53;10.67;;;6.40;1.00;;;;;;5101173;28;20183;-87
2022/12/06 08:16:11;;;;;;;19.93;10.90;;;6.40;1.00;;;;;;5101385;28;20290;-88
2022/12/06 08:18:37;;;;;;;19.58;10.90;;;6.50;1.00;;;;;;5096926;28;20215;-87
2022/12/06 08:21:03;;;;;;;18.57;10.97;;;6.50;1.00;;;;;;5104685;28;20193;-87
2022/12/06 08:23:29;;;;;;;20.17;11.95;;;6.50;1.00;;;;;;5101168;28;20417;-88
2022/12/06 08:26:02;;;;;;;20.43;12.40;;;6.50;1.00;;;;;;5099382;28;20203;-87
2022/12/06 08:28:29;;;;;;;17.77;11.10;;;6.50;1.00;;;;;;5101333;28;20469;-87
2022/12/06 08:30:55;;;;;;;19.55;10.88;;;6.50;1.00;;;;;;5105839;28;20202;-87
2022/12/06 08:33:21;;;;;;;22.02;12.55;;;6.50;1.00;;;;;;5103135;28;20206;-88
2022/12/06 08:35:50;;;;;;;19.00;11.43;;;6.50;1.00;;;;;;5103038;28;20223;-88
2022/12/06 08:38:17;;;;;;;18.08;11.55;;;6.50;1.00;;;;;;5101260;28;20762;-88
2022/12/06 08:40:43;;;;;;;18.77;11.07;;;6.60;1.00;;;;;;5097721;28;20709;-88
2022/12/06 08:43:08;;;;;;;19.85;11.73;;;6.60;1.00;;;;;;5107725;28;20188;-87
2022/12/06 08:45:34;;;;;;;21.63;10.83;;;6.60;1.00;;;;;;5107019;28;20196;-88
2022/12/06 08:48:00;;;;;;;22.90;12.30;;;6.60;1.00;;;;;;5096585;28;20620;-88
2022/12/06 08:50:25;;;;;;;21.70;12.30;;;6.70;1.00;;;;;;5106559;28;20179;-86
2022/12/06 08:52:51;;;;;;;16.00;11.30;;;6.70;1.00;;;;;;5105170;28;20498;-88
2022/12/06 08:55:16;;;;;;;18.03;10.27;;;6.70;1.00;;;;;;5101657;28;20209;-87
2022/12/06 08:57:42;;;;;;;25.23;11.30;;;6.70;1.00;;;;;;5105057;28;20212;-87
2022/12/06 09:00:09;;;;;;;19.70;12.10;;;6.80;1.00;;;;;;5103795;27;20209;-88
2022/12/06 09:02:38;;;;;;;19.95;10.77;;;6.90;1.00;;;;;;5097873;28;20212;-86
2022/12/06 09:05:03;;;;;;;19.77;11.13;;;7.00;1.00;;;;;;5102405;28;20251;-87
2022/12/06 09:07:29;;;;;;;19.07;11.10;;;7.00;1.00;;;;;;5102082;28;20203;-87
2022/12/06 09:09:55;;;;;;;18.40;10.77;;;7.10;1.00;;;;;;5103432;28;20607;-88
2022/12/06 09:12:20;;;;;;;25.87;12.83;;;7.20;1.00;;;;;;5105122;28;20183;-88
2022/12/06 09:14:46;;;;;;;20.83;12.27;;;7.30;1.00;;;;;;5099310;28;20214;-85
2022/12/06 09:17:11;;;;;;;16.20;10.07;;;7.30;1.00;;;;;;5111052;28;20184;-87
2022/12/06 09:19:37;;;;;;;22.70;11.20;;;7.30;1.00;;;;;;5115890;28;20183;-86
2022/12/06 09:22:03;;;;;;;18.03;9.90;;;7.40;99.90;;;;;;5104411;28;20187;-85
2022/12/06 09:24:28;;;;;;;20.33;10.47;;;7.40;99.90;;;;;;5097106;28;20690;-86
2022/12/06 09:26:54;;;;;;;20.70;10.87;;;7.40;99.90;;;;;;5105346;28;20199;-86
2022/12/06 09:29:20;;;;;;;15.27;9.70;;;7.50;99.90;;;;;;5106029;28;20175;-86
2022/12/06 09:31:46;;;;;;;14.87;9.40;;;7.60;99.90;;;;;;5103188;28;20267;-85
2022/12/06 09:34:11;;;;;;;15.90;10.23;;;7.70;99.90;;;;;;5106531;28;20184;-85
2022/12/06 09:36:50;;;;;;;16.97;11.43;;;7.70;99.90;;;;;;5103135;28;20529;-87
2022/12/06 09:39:20;;;;;;;17.00;11.93;;;7.80;99.90;;;;;;5095084;28;20854;-86
2022/12/06 09:41:45;;;;;;;14.90;11.17;;;8.00;99.90;;;;;;5098003;28;20432;-85
2022/12/06 09:44:39;;;;;;;15.30;9.47;;;8.00;99.90;;;;;;5099456;28;20832;-86
2022/12/06 09:47:39;;;;;;;12.87;8.87;;;8.00;99.90;;;;;;5093346;28;20193;-88
2022/12/06 09:50:16;;;;;;;10.60;8.60;;;8.10;99.90;;;;;;5062306;28;20959;-87
2022/12/06 09:53:14;;;;;;;15.97;8.23;;;8.20;99.90;;;;;;5105750;28;20425;-87
2022/12/06 09:56:15;;;;;;;19.48;9.45;;;8.20;1.00;;;;;;5098495;28;20453;-87
2022/12/06 09:59:10;;;;;;;11.87;7.50;;;8.30;1.00;;;;;;5099453;28;20252;-87
2022/12/06 10:02:01;;;;;;;15.90;8.03;;;8.30;1.00;;;;;;5092314;28;20437;-87
2022/12/06 10:05:09;;;;;;;10.20;7.50;;;8.20;99.90;;;;;;5099050;28;20457;-88
2022/12/06 10:07:59;;;;;;;13.20;7.47;;;8.30;99.90;;;;;;5098276;28;20928;-87
2022/12/06 10:10:37;;;;;;;13.07;8.55;;;8.20;99.90;;;;;;5108826;28;20433;-86
2022/12/06 10:13:26;;;;;;;12.17;7.37;;;8.20;99.90;;;;;;5102854;28;20179;-87
2022/12/06 10:15:59;;;;;;;16.40;8.00;;;8.20;99.90;;;;;;5120379;28;20449;-86
2022/12/06 10:18:34;;;;;;;12.00;8.33;;;8.20;99.90;;;;;;5132418;28;20483;-88
2022/12/06 10:21:16;;;;;;;15.30;8.67;;;8.20;99.90;;;;;;5105934;28;20432;-86
2022/12/06 10:23:54;;;;;;;16.10;9.67;;;8.10;99.90;;;;;;5101999;28;20993;-88
2022/12/06 10:26:37;;;;;;;13.80;9.43;;;8.20;1.00;;;;;;5100883;28;20486;-86
2022/12/06 10:29:06;;;;;;;11.80;8.10;;;8.20;1.00;;;;;;5104011;28;20445;-87
2022/12/06 10:31:46;;;;;;;14.67;9.07;;;8.20;99.90;;;;;;5110031;28;20448;-87
2022/12/06 10:34:53;;;;;;;14.80;8.20;;;8.30;99.90;;;;;;5101832;28;20416;-86
2022/12/06 10:37:42;;;;;;;10.90;7.03;;;8.40;99.90;;;;;;5113802;28;20444;-86
2022/12/06 10:40:19;;;;;;;12.93;8.50;;;8.40;99.90;;;;;;5109480;28;20433;-87
2022/12/06 10:42:55;;;;;;;12.70;7.80;;;8.40;1.00;;;;;;5104185;28;20463;-86
2022/12/06 10:48:41;;;;;;;11.07;8.53;;;8.70;1.00;;;;;;5104659;28;20447;-86
2022/12/06 10:51:13;;;;;;;11.57;7.73;;;8.90;16.00;;;;;;5106791;28;20532;-86
2022/12/06 10:53:55;;;;;;;15.43;9.40;;;9.10;1.00;;;;;;5112801;28;20792;-86
2022/12/06 10:56:30;;;;;;;10.97;6.43;;;9.20;99.90;;;;;;5110362;28;20449;-86
2022/12/06 10:59:07;;;;;;;8.23;6.20;;;9.20;99.90;;;;;;5108603;28;20452;-87
2022/12/06 11:01:40;;;;;;;12.00;6.73;;;9.20;1.00;;;;;;5112117;27;20936;-85
2022/12/06 11:04:18;;;;;;;11.57;6.53;;;9.20;99.90;;;;;;5099362;28;20434;-85
2022/12/06 11:07:01;;;;;;;9.23;6.50;;;9.30;99.90;;;;;;5103992;28;20433;-85
2022/12/06 11:09:38;;;;;;;9.80;7.00;;;9.30;99.90;;;;;;5100532;28;20438;-86
2022/12/06 11:12:26;;;;;;;9.57;6.43;;;9.40;1.00;;;;;;5107855;28;20928;-87
2022/12/06 11:14:59;;;;;;;11.73;7.00;;;9.40;1.00;;;;;;5101458;28;20438;-86
2022/12/06 11:17:33;;;;;;;10.07;6.70;;;9.40;1.00;;;;;;5099273;28;20986;-87
2022/12/06 11:20:25;;;;;;;10.50;7.27;;;9.40;99.90;;;;;;5108115;28;20422;-85
2022/12/06 11:23:05;;;;;;;8.40;5.87;;;9.40;99.90;;;;;;5093611;28;20409;-86
2022/12/06 11:25:49;;;;;;;9.30;6.63;;;9.40;99.90;;;;;;5111588;28;20433;-86
2022/12/06 11:28:35;;;;;;;8.83;6.20;;;9.40;99.90;;;;;;5113233;28;20433;-86
2022/12/06 11:31:06;;;;;;;13.83;6.43;;;9.40;1.00;;;;;;5106951;28;20428;-86
2022/12/06 11:33:33;;;;;;;10.17;6.20;;;9.30;1.00;;;;;;5107535;28;20478;-85
2022/12/06 11:36:06;;;;;;;7.90;5.10;;;9.40;99.90;;;;;;5094330;28;20430;-87
2022/12/06 11:38:33;;;;;;;8.97;6.37;;;9.40;99.90;;;;;;5095748;28;20457;-87
2022/12/06 11:41:00;;;;;;;8.00;5.27;;;9.40;1.00;;;;;;5099265;28;20449;-86
2022/12/06 11:43:33;;;;;;;6.30;4.93;;;9.50;36.80;;;;;;5112579;28;20931;-86
2022/12/06 11:45:59;;;;;;;5.80;4.53;;;9.40;99.90;;;;;;5102392;28;20860;-86
2022/12/06 11:48:27;;;;;;;7.20;4.50;;;9.40;99.90;;;;;;5106118;28;20485;-87
2022/12/06 11:50:53;;;;;;;7.37;5.37;;;9.40;99.90;;;;;;5100379;28;20440;-87
2022/12/06 11:53:28;;;;;;;6.80;5.03;;;9.40;99.90;;;;;;5102545;28;20437;-88
2022/12/06 11:55:59;;;;;;;5.80;4.13;;;9.30;99.90;;;;;;5105854;28;20543;-87
2022/12/06 11:58:43;;;;;;;5.37;4.03;;;9.30;99.90;;;;;;5102232;28;20831;-88
2022/12/06 12:01:13;;;;;;;9.07;4.87;;;9.20;99.90;;;;;;5108036;28;20767;-87
2022/12/06 12:03:42;;;;;;;8.33;4.30;;;9.20;1.00;;;;;;5105447;28;20461;-87
2022/12/06 12:06:22;;;;;;;7.03;5.10;;;9.20;99.90;;;;;;5101208;28;21016;-87
2022/12/06 12:08:58;;;;;;;7.53;5.60;;;9.20;99.90;;;;;;5109326;28;20528;-87
2022/12/06 12:11:28;;;;;;;10.80;5.67;;;9.20;99.90;;;;;;5112620;28;20959;-88
2022/12/06 12:14:00;;;;;;;9.53;4.87;;;9.30;1.00;;;;;;5105237;28;20472;-86
2022/12/06 12:16:41;;;;;;;8.00;5.93;;;9.40;1.00;;;;;;5112105;28;20469;-87
2022/12/06 12:19:31;;;;;;;6.97;5.33;;;9.40;1.00;;;;;;5101788;28;20473;-87
2022/12/06 12:22:12;;;;;;;8.70;5.37;;;9.40;99.90;;;;;;5102577;28;20451;-88
2022/12/06 12:24:51;;;;;;;7.80;4.40;;;9.50;99.90;;;;;;5118363;28;20460;-86
2022/12/06 12:27:29;;;;;;;6.40;4.90;;;9.70;99.90;;;;;;5108696;28;20445;-88
2022/12/06 12:30:21;;;;;;;8.90;4.73;;;9.90;18.90;;;;;;5097917;28;20438;-87
2022/12/06 12:32:48;;;;;;;6.97;4.73;;;10.10;1.00;;;;;;5093202;28;20526;-87
2022/12/06 12:35:27;;;;;;;5.37;4.57;;;10.30;1.00;;;;;;5097409;28;20454;-87
2022/12/06 12:38:09;;;;;;;5.10;4.43;;;10.70;1.00;;;;;;5097341;28;21004;-88
2022/12/06 12:40:57;;;;;;;7.40;5.40;;;10.70;99.90;;;;;;5096614;28;20435;-85
2022/12/06 12:43:31;;;;;;;4.93;4.00;;;11.20;99.90;;;;;;5102362;28;20440;-86
2022/12/06 12:46:08;;;;;;;5.33;4.10;;;11.70;45.40;;;;;;5095555;28;21141;-86
2022/12/06 12:48:34;;;;;;;7.53;4.07;;;11.70;1.00;;;;;;5096856;28;20480;-87
2022/12/06 12:51:17;;;;;;;4.87;4.27;;;11.50;1.00;;;;;;5106216;28;20442;-86
2022/12/06 12:53:44;;;;;;;7.23;4.93;;;11.70;1.00;;;;;;5100047;27;20447;-85
2022/12/06 12:56:18;;;;;;;6.17;5.00;;;11.60;1.00;;;;;;5099493;28;20489;-87
2022/12/06 12:58:48;;;;;;;8.07;5.30;;;11.40;1.00;;;;;;5098170;28;20461;-87
2022/12/06 13:01:43;;;;;;;5.93;5.00;;;11.10;1.00;;;;;;5102218;28;20437;-86
2022/12/06 13:04:41;;;;;;;7.00;4.13;;;10.80;1.00;;;;;;5103292;28;20429;-86
2022/12/06 13:07:16;;;;;;;5.97;3.90;;;10.90;1.00;;;;;;5094833;28;20856;-86
2022/12/06 13:10:03;;;;;;;5.97;4.10;;;10.90;1.00;;;;;;5099251;28;20817;-87
2022/12/06 13:12:36;;;;;;;6.53;3.83;;;10.70;1.00;;;;;;5098977;28;21129;-86
2022/12/06 13:15:17;;;;;;;9.00;4.67;;;10.50;1.00;;;;;;5102569;28;20764;-85
2022/12/06 13:17:47;;;;;;;6.93;4.30;;;10.10;1.00;;;;;;5104151;28;20492;-85
2022/12/06 13:20:19;;;;;;;8.43;4.43;;;9.80;1.00;;;;;;5102737;28;21054;-86
2022/12/06 13:22:47;;;;;;;5.03;3.87;;;9.60;1.00;;;;;;5110901;28;20858;-87
2022/12/06 13:25:12;;;;;;;6.00;4.10;;;9.70;1.00;;;;;;5103543;28;20449;-87
2022/12/06 13:27:50;;;;;;;6.33;4.50;;;9.80;1.00;;;;;;5107159;28;20433;-86
2022/12/06 13:30:22;;;;;;;7.67;5.47;;;10.30;1.00;;;;;;5101137;28;20187;-86
2022/12/06 13:33:14;;;;;;;10.70;7.30;;;10.50;1.00;;;;;;5101263;28;20448;-86
2022/12/06 13:35:49;;;;;;;10.83;8.23;;;10.60;1.00;;;;;;5105087;28;20449;-86
2022/12/06 13:38:17;;;;;;;14.37;10.87;;;10.40;1.00;;;;;;5094714;28;20442;-85